Archiv-/Tagesdaten

--Timestamp---	Temp	Chill	HIndex	Humid	Dewpt	 Wind 	HiWind	WindDir	Rain 	Barom	Solar	 ET  	 UV 
--------------	----	-----	------	-----	-----	------	------	-------	-----	-----	-----	-----	----
20091119 00:00	6.0	6.0	6.0	92	4.8	3	6	202	0.0	1025.5	0	0.000	0.0
20091119 00:05	5.9	5.9	5.9	91	4.5	5	8	202	0.0	1025.4	0	0.000	0.0
20091119 00:10	5.8	5.8	5.8	91	4.4	5	8	202	0.0	1025.5	0	0.000	0.0
20091119 00:15	5.8	5.8	5.8	92	4.6	5	10	202	0.0	1025.4	0	0.000	0.0
20091119 00:20	5.8	5.8	5.8	92	4.6	3	6	202	0.0	1025.4	0	0.000	0.0
20091119 00:25	5.8	5.8	5.8	92	4.6	5	11	202	0.0	1025.4	0	0.000	0.0
20091119 00:30	5.8	5.8	5.8	92	4.6	5	11	202	0.0	1025.5	0	0.000	0.0
20091119 00:35	5.8	5.8	5.8	92	4.6	5	6	202	0.0	1025.5	0	0.000	0.0
20091119 00:40	5.7	5.7	5.7	92	4.5	5	8	202	0.0	1025.5	0	0.000	0.0
20091119 00:45	5.7	5.7	5.7	92	4.5	3	6	202	0.0	1025.5	0	0.000	0.0
20091119 00:50	5.7	5.7	5.7	92	4.5	5	10	202	0.0	1025.5	0	0.000	0.0
20091119 00:55	5.8	4.6	5.8	92	4.6	6	11	202	0.0	1025.4	0	0.000	0.0
20091119 01:00	5.9	4.2	5.9	92	4.7	8	11	202	0.0	1025.5	0	0.000	0.0
20091119 01:05	5.9	3.8	5.9	92	4.7	10	16	202	0.0	1025.4	0	0.000	0.0
20091119 01:10	5.8	4.1	5.8	92	4.6	8	14	225	0.0	1025.4	0	0.000	0.0
20091119 01:15	5.7	4.0	5.7	92	4.5	8	14	202	0.0	1025.5	0	0.000	0.0
20091119 01:20	5.7	3.5	5.7	92	4.5	10	16	202	0.0	1025.5	0	0.000	0.0
20091119 01:25	5.6	3.9	5.6	92	4.4	8	11	202	0.0	1025.6	0	0.000	0.0
20091119 01:30	5.6	4.2	5.6	92	4.4	6	11	202	0.0	1025.6	0	0.000	0.0
20091119 01:35	5.5	5.5	5.5	92	4.3	5	8	202	0.0	1025.7	0	0.000	0.0
20091119 01:40	5.4	5.4	5.4	92	4.2	5	8	202	0.0	1025.7	0	0.000	0.0
20091119 01:45	5.4	5.4	5.4	92	4.2	5	8	202	0.0	1025.7	0	0.000	0.0
20091119 01:50	5.4	4.0	5.4	92	4.2	6	8	202	0.0	1025.6	0	0.000	0.0
20091119 01:55	5.3	4.0	5.3	92	4.1	6	8	202	0.0	1025.6	0	0.000	0.0
20091119 02:00	5.4	5.4	5.4	92	4.2	5	8	202	0.0	1025.7	0	0.000	0.0
20091119 02:05	5.4	5.4	5.4	93	4.4	5	8	202	0.0	1025.8	0	0.000	0.0
20091119 02:10	5.4	4.0	5.4	92	4.2	6	8	202	0.0	1025.8	0	0.000	0.0
20091119 02:15	5.3	3.5	5.3	92	4.1	8	14	202	0.0	1025.7	0	0.000	0.0
20091119 02:20	5.4	3.6	5.4	93	4.3	8	14	202	0.2	1025.7	0	0.000	0.0
20091119 02:25	5.4	4.1	5.4	93	4.4	6	11	202	0.0	1025.8	0	0.000	0.0
20091119 02:30	5.3	3.5	5.3	93	4.3	8	13	202	0.0	1025.8	0	0.000	0.0
20091119 02:35	5.2	3.0	5.2	92	4.0	10	16	202	0.0	1025.9	0	0.000	0.0
20091119 02:40	5.1	3.3	5.1	92	3.9	8	16	202	0.0	1025.9	0	0.000	0.0
20091119 02:45	5.1	3.7	5.1	92	3.9	6	14	225	0.0	1026.0	0	0.000	0.0
20091119 02:50	5.0	3.6	5.0	92	3.8	6	11	225	0.0	1026.0	0	0.000	0.0
20091119 02:55	4.9	3.5	4.9	92	3.7	6	10	225	0.0	1026.0	0	0.000	0.0
20091119 03:00	4.8	3.4	4.8	92	3.6	6	8	225	0.0	1026.0	0	0.000	0.0
20091119 03:05	4.8	4.8	4.8	92	3.6	3	6	225	0.0	1026.0	0	0.000	0.0
20091119 03:10	4.8	4.8	4.8	92	3.6	3	8	225	0.0	1026.0	0	0.000	0.0
20091119 03:15	4.8	4.8	4.8	93	3.8	3	6	225	0.0	1026.0	0	0.000	0.0
20091119 03:20	4.8	4.8	4.8	92	3.6	0	2	225	0.0	1026.0	0	0.000	0.0
20091119 03:25	4.7	4.7	4.7	92	3.5	3	5	225	0.0	1026.0	0	0.000	0.0
20091119 03:30	4.6	4.6	4.6	92	3.4	3	6	225	0.0	1026.1	0	0.000	0.0
20091119 03:35	4.4	4.4	4.4	92	3.3	2	5	225	0.0	1026.1	0	0.000	0.0
20091119 03:40	4.3	4.3	4.3	92	3.1	2	5	225	0.0	1026.2	0	0.000	0.0
20091119 03:45	4.2	4.2	4.2	92	3.0	2	3	225	0.0	1026.1	0	0.000	0.0
20091119 03:50	4.2	4.2	4.2	92	3.0	2	5	225	0.0	1026.1	0	0.000	0.0
20091119 03:55	4.1	4.1	4.1	92	2.9	2	3	225	0.0	1026.1	0	0.000	0.0
20091119 04:00	4.1	4.1	4.1	92	2.9	0	3	225	0.0	1026.1	0	0.000	0.0
20091119 04:05	4.1	4.1	4.1	93	3.0	3	5	225	0.0	1026.4	0	0.000	0.0
20091119 04:10	4.1	4.1	4.1	93	3.0	2	5	225	0.0	1026.4	0	0.000	0.0
20091119 04:15	4.1	4.1	4.1	93	3.0	0	2	225	0.0	1026.5	0	0.000	0.0
20091119 04:20	4.1	4.1	4.1	93	3.1	2	3	225	0.0	1026.5	0	0.000	0.0
20091119 04:25	4.2	4.2	4.2	93	3.2	0	3	225	0.0	1026.3	0	0.000	0.0
20091119 04:30	4.2	4.2	4.2	93	3.1	0	3	225	0.0	1026.3	0	0.000	0.0
20091119 04:35	4.1	4.1	4.1	93	3.1	0	3	225	0.0	1026.4	0	0.000	0.0
20091119 04:40	4.1	4.1	4.1	93	3.0	2	5	225	0.0	1026.6	0	0.000	0.0
20091119 04:45	4.1	4.1	4.1	93	3.1	3	6	225	0.0	1026.6	0	0.000	0.0
20091119 04:50	4.2	4.2	4.2	93	3.2	3	5	225	0.0	1026.6	0	0.000	0.0
20091119 04:55	4.2	4.2	4.2	93	3.2	3	5	225	0.0	1026.6	0	0.000	0.0
20091119 05:00	4.2	4.2	4.2	93	3.1	2	5	225	0.0	1026.7	0	0.000	0.0
20091119 05:05	4.2	4.2	4.2	93	3.2	3	6	225	0.0	1026.8	0	0.000	0.0
20091119 05:10	4.3	4.3	4.3	93	3.3	5	6	225	0.0	1026.9	0	0.000	0.0
20091119 05:15	4.4	4.4	4.4	93	3.4	2	5	225	0.0	1026.8	0	0.000	0.0
20091119 05:20	4.5	4.5	4.5	93	3.5	3	6	225	0.0	1026.8	0	0.000	0.0
20091119 05:25	4.6	4.6	4.6	93	3.5	5	6	225	0.0	1026.8	0	0.000	0.0
20091119 05:30	4.5	4.5	4.5	93	3.5	5	8	225	0.0	1026.9	0	0.000	0.0
20091119 05:35	4.4	4.4	4.4	93	3.4	3	6	225	0.0	1026.9	0	0.000	0.0
20091119 05:40	4.4	4.4	4.4	93	3.4	5	6	225	0.0	1026.9	0	0.000	0.0
20091119 05:45	4.3	4.3	4.3	93	3.3	2	5	225	0.0	1026.8	0	0.000	0.0
20091119 05:50	4.3	4.3	4.3	93	3.2	3	5	225	0.0	1026.8	0	0.000	0.0
20091119 05:55	4.2	4.2	4.2	93	3.1	3	8	225	0.0	1026.8	0	0.000	0.0
20091119 06:00	4.2	2.6	4.2	93	3.1	6	10	225	0.0	1026.9	0	0.000	0.0
20091119 06:05	4.1	4.1	4.1	93	3.0	5	8	225	0.0	1026.8	0	0.000	0.0
20091119 06:10	3.9	3.9	3.9	93	2.9	3	6	225	0.0	1026.8	0	0.000	0.0
20091119 06:15	3.8	3.8	3.8	93	2.8	3	6	225	0.0	1026.8	0	0.000	0.0
20091119 06:20	3.8	3.8	3.8	93	2.8	2	5	225	0.0	1026.9	0	0.000	0.0
20091119 06:25	3.8	3.8	3.8	93	2.8	3	5	225	0.0	1026.9	0	0.000	0.0
20091119 06:30	3.8	3.8	3.8	93	2.8	3	6	225	0.0	1026.9	0	0.000	0.0
20091119 06:35	3.8	3.8	3.8	93	2.8	3	8	225	0.0	1026.9	0	0.000	0.0
20091119 06:40	3.8	3.8	3.8	93	2.8	5	6	225	0.0	1026.9	0	0.000	0.0
20091119 06:45	3.7	3.7	3.7	93	2.7	2	5	225	0.0	1026.8	0	0.000	0.0
20091119 06:50	3.7	3.7	3.7	93	2.6	2	5	225	0.0	1026.8	0	0.000	0.0
20091119 06:55	3.6	3.6	3.6	93	2.5	0	2	225	0.0	1026.9	0	0.000	0.0
20091119 07:00	3.4	3.4	3.4	93	2.4	0	2	225	0.0	1027.0	0	0.000	0.0
20091119 07:05	3.3	3.3	3.3	93	2.3	0	0	-100000	0.0	1027.1	0	0.000	0.0
20091119 07:10	3.2	3.2	3.2	93	2.1	0	3	225	0.0	1027.1	0	0.000	0.0
20091119 07:15	3.2	3.2	3.2	93	2.1	2	3	225	0.0	1027.1	0	0.000	0.0
20091119 07:20	3.1	3.1	3.1	93	2.1	0	3	225	0.0	1027.2	0	0.000	0.0
20091119 07:25	3.1	3.1	3.1	93	2.0	2	5	225	0.0	1027.1	0	0.000	0.0
20091119 07:30	3.1	3.1	3.1	93	2.0	2	5	225	0.0	1027.1	0	0.000	0.0
20091119 07:35	3.1	3.1	3.1	93	2.0	2	5	225	0.0	1027.2	5	0.000	0.0
20091119 07:40	3.1	3.1	3.1	93	2.1	2	5	225	0.0	1027.2	7	0.000	0.0
20091119 07:45	3.2	3.2	3.2	93	2.1	2	5	225	0.0	1027.1	9	0.000	0.0
20091119 07:50	3.2	3.2	3.2	93	2.1	2	5	225	0.0	1027.2	10	0.000	0.0
20091119 07:55	3.2	3.2	3.2	93	2.1	2	5	225	0.0	1027.3	12	0.000	0.0
20091119 08:00	3.1	3.1	3.1	93	2.1	2	5	225	0.0	1027.4	13	0.000	0.0
20091119 08:05	3.1	3.1	3.1	93	2.1	2	6	225	0.0	1027.3	14	0.000	0.0
20091119 08:10	3.2	3.2	3.2	94	2.4	3	8	225	0.0	1027.3	16	0.000	0.0
20091119 08:15	3.3	3.3	3.3	94	2.5	2	5	225	0.0	1027.3	18	0.000	0.0
20091119 08:20	3.4	3.4	3.4	94	2.6	2	5	225	0.0	1027.3	19	0.000	0.0
20091119 08:25	3.5	3.5	3.5	94	2.6	3	5	225	0.0	1027.3	23	0.000	0.0
20091119 08:30	3.6	3.6	3.6	94	2.7	2	3	225	0.0	1027.3	35	0.000	0.0
20091119 08:35	3.8	3.8	3.8	94	2.9	2	6	225	0.0	1027.2	32	0.000	0.0
20091119 08:40	3.9	3.9	3.9	94	3.1	3	6	225	0.0	1027.2	26	0.000	0.0
20091119 08:45	4.1	4.1	4.1	94	3.2	3	6	225	0.0	1027.3	27	0.000	0.0
20091119 08:50	4.2	4.2	4.2	94	3.3	3	6	225	0.0	1027.4	29	0.000	0.0
20091119 08:55	4.3	4.3	4.3	94	3.4	3	6	225	0.0	1027.3	30	0.000	0.0
20091119 09:00	4.3	4.3	4.3	94	3.5	2	6	225	0.0	1027.2	30	0.000	0.0
20091119 09:05	4.5	4.5	4.5	94	3.6	3	5	225	0.0	1027.2	30	0.000	0.0
20091119 09:10	4.7	4.7	4.7	94	3.8	3	6	225	0.0	1027.3	30	0.000	0.0
20091119 09:15	4.8	4.8	4.8	94	3.9	2	5	225	0.0	1027.2	32	0.000	0.0
20091119 09:20	5.1	5.1	5.1	94	4.2	3	6	225	0.0	1027.2	32	0.000	0.0
20091119 09:25	5.3	5.3	5.3	94	4.4	5	10	225	0.0	1027.1	33	0.000	0.0
20091119 09:30	5.6	5.6	5.6	94	4.7	5	6	225	0.0	1027.1	33	0.000	0.0
20091119 09:35	5.7	5.7	5.7	94	4.8	5	8	225	0.0	1027.0	33	0.000	0.0
20091119 09:40	5.9	5.9	5.9	94	5.0	5	6	225	0.0	1027.0	33	0.000	0.0
20091119 09:45	6.1	6.1	6.1	94	5.2	2	5	225	0.0	1027.0	33	0.000	0.0
20091119 09:50	6.3	6.3	6.3	94	5.4	2	6	225	0.0	1027.0	33	0.000	0.0
20091119 09:55	6.5	6.5	6.5	94	5.6	3	6	225	0.0	1026.8	34	0.000	0.0
20091119 10:00	6.7	6.7	6.7	94	5.8	0	3	225	0.0	1026.8	35	0.025	0.0
20091119 10:05	7.0	7.0	7.0	93	5.9	3	6	225	0.0	1026.8	35	0.000	0.0
20091119 10:10	7.2	7.2	7.2	93	6.2	5	6	225	0.0	1026.8	35	0.000	0.0
20091119 10:15	7.3	7.3	7.3	92	6.1	3	6	225	0.0	1026.8	35	0.000	0.0
20091119 10:20	7.6	7.6	7.6	92	6.3	2	5	225	0.0	1026.8	35	0.000	0.0
20091119 10:25	7.7	7.7	7.7	92	6.5	2	6	225	0.0	1026.8	37	0.000	0.0
20091119 10:30	7.9	7.9	7.9	92	6.7	5	6	225	0.0	1026.8	37	0.000	0.0
20091119 10:35	8.2	8.2	8.2	91	6.8	5	10	225	0.0	1026.6	37	0.000	0.0
20091119 10:40	8.4	8.4	8.4	90	6.9	3	10	158	0.0	1026.6	37	0.000	0.0
20091119 10:45	8.7	8.7	8.7	89	7.0	3	10	135	0.0	1026.5	57	0.000	0.3
20091119 10:50	8.9	8.9	8.9	88	7.1	5	10	158	0.0	1026.6	292	0.000	0.9
20091119 10:55	9.4	9.4	9.4	87	7.3	5	10	180	0.0	1026.4	296	0.000	1.0
20091119 11:00	10.0	10.0	10.0	85	7.6	3	5	180	0.0	1026.3	301	0.051	1.0
20091119 11:05	10.5	10.5	10.5	82	7.6	2	5	180	0.0	1026.2	305	0.000	1.0
20091119 11:10	10.9	10.9	10.9	80	7.6	5	8	180	0.0	1026.2	308	0.000	1.0
20091119 11:15	11.1	11.1	11.1	78	7.4	6	11	180	0.0	1026.1	312	0.000	1.1
20091119 11:20	11.3	11.3	11.3	77	7.4	6	14	180	0.0	1026.0	314	0.000	1.1
20091119 11:25	11.3	11.3	11.3	76	7.2	6	14	158	0.0	1025.9	317	0.000	1.1
20091119 11:30	11.2	11.2	11.2	77	7.3	5	13	135	0.0	1025.9	322	0.000	1.1
20091119 11:35	11.3	11.3	11.3	76	7.3	5	10	135	0.0	1025.9	323	0.000	1.2
20091119 11:40	11.4	11.4	11.4	75	7.2	6	13	158	0.0	1025.8	324	0.000	1.2
20091119 11:45	11.7	11.7	11.7	74	7.2	5	11	158	0.0	1025.7	323	0.000	1.2
20091119 11:50	11.8	11.8	11.8	74	7.3	5	16	158	0.0	1025.7	325	0.000	1.2
20091119 11:55	12.1	12.1	12.1	73	7.4	5	8	135	0.0	1025.6	326	0.000	1.2
20091119 12:00	12.3	12.3	12.3	73	7.6	3	11	158	0.0	1025.7	328	0.178	1.2
20091119 12:05	12.4	12.4	12.4	73	7.7	5	13	158	0.0	1025.6	331	0.000	1.2
20091119 12:10	12.6	12.6	12.6	73	7.8	3	8	180	0.0	1025.6	333	0.000	1.2
20091119 12:15	12.8	12.8	12.8	71	7.7	5	11	158	0.0	1025.5	333	0.000	1.2
20091119 12:20	13.0	13.0	13.0	70	7.7	5	10	180	0.0	1025.4	334	0.000	1.2
20091119 12:25	13.1	13.1	13.1	70	7.7	5	10	158	0.0	1025.3	336	0.000	1.2
20091119 12:30	13.2	13.2	13.2	72	8.2	3	6	180	0.0	1025.2	341	0.000	1.2
20091119 12:35	13.3	13.3	13.3	71	8.2	5	10	180	0.0	1025.2	345	0.000	1.2
20091119 12:40	13.5	13.5	13.5	71	8.3	3	8	135	0.0	1025.2	345	0.000	1.2
20091119 12:45	13.4	13.4	13.4	71	8.3	5	10	135	0.0	1025.2	342	0.000	1.2
20091119 12:50	13.2	13.2	13.2	71	8.1	3	10	135	0.0	1025.1	339	0.000	1.2
20091119 12:55	13.3	13.3	13.3	70	8.0	2	8	135	0.0	1025.1	336	0.000	1.1
20091119 13:00	13.4	13.4	13.4	69	7.8	5	8	135	0.0	1025.0	332	0.178	1.1
20091119 13:05	13.3	13.3	13.3	69	7.7	2	8	135	0.0	1025.0	329	0.000	1.1
20091119 13:10	13.7	13.7	13.7	69	8.1	3	8	158	0.0	1024.9	324	0.000	1.1
20091119 13:15	13.7	13.7	13.7	68	7.9	5	8	135	0.0	1024.9	319	0.000	1.0
20091119 13:20	13.7	13.7	13.7	67	7.6	3	8	135	0.0	1024.8	314	0.000	1.0
20091119 13:25	14.1	14.1	14.1	65	7.6	3	6	158	0.0	1024.8	310	0.000	1.0
20091119 13:30	14.3	14.3	14.3	65	7.8	3	8	158	0.0	1024.7	305	0.000	0.9
20091119 13:35	14.5	14.5	14.5	65	8.0	5	8	158	0.0	1024.7	299	0.000	0.9
20091119 13:40	14.7	14.7	14.7	65	8.2	6	11	202	0.0	1024.6	294	0.000	0.9
20091119 13:45	14.8	14.8	14.8	64	8.0	6	10	180	0.0	1024.6	287	0.000	0.8
20091119 13:50	14.7	14.7	14.7	64	8.0	5	10	180	0.0	1024.5	281	0.000	0.8
20091119 13:55	14.7	14.7	14.7	65	8.2	5	10	202	0.0	1024.5	316	0.000	0.8
20091119 14:00	14.8	14.8	14.8	64	8.1	3	8	180	0.0	1024.5	310	0.178	0.7
20091119 14:05	15.0	15.0	15.0	64	8.2	2	5	180	0.0	1024.5	266	0.000	0.7
20091119 14:10	15.0	15.0	15.0	63	8.0	2	6	180	0.0	1024.5	245	0.000	0.7
20091119 14:15	14.8	14.8	14.8	63	7.8	3	8	180	0.0	1024.4	233	0.000	0.6
20091119 14:20	14.5	14.5	14.5	64	7.8	5	8	158	0.0	1024.5	201	0.000	0.6
20091119 14:25	14.3	14.3	14.3	67	8.2	3	8	112	0.0	1024.5	104	0.000	0.5
20091119 14:30	14.0	14.0	14.0	67	8.0	3	8	112	0.0	1024.4	47	0.000	0.0
20091119 14:35	13.8	13.8	13.8	67	7.8	5	6	135	0.0	1024.4	44	0.000	0.0
20091119 14:40	13.7	13.7	13.7	68	7.9	2	6	135	0.0	1024.4	44	0.000	0.0
20091119 14:45	13.6	13.6	13.6	69	8.0	3	5	135	0.0	1024.5	42	0.000	0.0
20091119 14:50	13.6	13.6	13.6	69	8.0	2	6	135	0.0	1024.4	42	0.000	0.0
20091119 14:55	13.6	13.6	13.6	69	8.0	2	6	135	0.0	1024.5	40	0.000	0.0
20091119 15:00	13.5	13.5	13.5	70	8.1	2	6	135	0.0	1024.5	39	0.076	0.0
20091119 15:05	13.4	13.4	13.4	71	8.3	0	3	135	0.0	1024.6	38	0.000	0.0
20091119 15:10	13.4	13.4	13.4	71	8.2	2	6	135	0.0	1024.6	37	0.000	0.0
20091119 15:15	13.3	13.3	13.3	71	8.1	3	6	135	0.0	1024.6	35	0.000	0.0
20091119 15:20	13.2	13.2	13.2	69	7.7	3	10	180	0.0	1024.6	33	0.000	0.0
20091119 15:25	13.2	13.2	13.2	69	7.6	3	6	158	0.0	1024.6	32	0.000	0.0
20091119 15:30	13.2	13.2	13.2	68	7.4	3	6	158	0.0	1024.6	30	0.000	0.0
20091119 15:35	13.1	13.1	13.1	70	7.7	2	5	158	0.0	1024.6	27	0.000	0.0
20091119 15:40	13.0	13.0	13.0	72	8.1	0	3	158	0.0	1024.7	26	0.000	0.0
20091119 15:45	12.9	12.9	12.9	73	8.2	0	3	158	0.0	1024.7	25	0.000	0.0
20091119 15:50	12.8	12.8	12.8	73	8.1	0	5	158	0.0	1024.7	22	0.000	0.0
20091119 15:55	12.6	12.6	12.6	74	8.1	2	5	158	0.0	1024.6	21	0.000	0.0
20091119 16:00	12.4	12.4	12.4	75	8.1	3	5	158	0.0	1024.8	19	0.025	0.0
20091119 16:05	12.2	12.2	12.2	76	8.1	3	5	158	0.0	1024.6	17	0.000	0.0
20091119 16:10	12.1	12.1	12.1	76	8.0	2	3	158	0.0	1024.6	15	0.000	0.0
20091119 16:15	11.8	11.8	11.8	76	7.7	2	5	158	0.0	1024.7	12	0.000	0.0
20091119 16:20	11.6	11.6	11.6	77	7.7	3	5	158	0.0	1024.7	10	0.000	0.0
20091119 16:25	11.4	11.4	11.4	76	7.4	3	5	158	0.0	1024.7	8	0.000	0.0
20091119 16:30	11.3	11.3	11.3	76	7.3	3	6	158	0.0	1024.7	5	0.000	0.0
20091119 16:35	11.2	11.2	11.2	76	7.1	2	5	158	0.0	1024.8	0	0.000	0.0
20091119 16:40	10.9	10.9	10.9	76	6.9	0	3	158	0.0	1024.9	0	0.000	0.0
20091119 16:45	10.7	10.7	10.7	77	6.9	2	3	158	0.0	1025.1	0	0.000	0.0
20091119 16:50	10.4	10.4	10.4	77	6.6	3	6	158	0.0	1025.1	0	0.000	0.0
20091119 16:55	10.3	10.3	10.3	77	6.4	3	6	158	0.0	1025.0	0	0.000	0.0
20091119 17:00	10.1	10.1	10.1	77	6.3	2	6	158	0.0	1025.0	0	0.000	0.0
20091119 17:05	9.9	9.9	9.9	77	6.1	2	5	158	0.0	1025.0	0	0.000	0.0
20091119 17:10	9.8	9.8	9.8	78	6.1	2	6	158	0.0	1025.0	0	0.000	0.0
20091119 17:15	9.6	9.6	9.6	78	6.0	2	6	158	0.0	1025.2	0	0.000	0.0
20091119 17:20	9.4	9.4	9.4	79	6.0	2	6	158	0.0	1025.1	0	0.000	0.0
20091119 17:25	9.3	9.3	9.3	79	5.9	0	2	158	0.0	1025.2	0	0.000	0.0
20091119 17:30	9.2	9.2	9.2	79	5.7	2	6	158	0.0	1025.1	0	0.000	0.0
20091119 17:35	8.9	8.9	8.9	80	5.7	2	6	158	0.0	1025.1	0	0.000	0.0
20091119 17:40	8.8	8.8	8.8	80	5.5	2	5	158	0.0	1025.0	0	0.000	0.0
20091119 17:45	8.7	8.7	8.7	80	5.5	2	5	158	0.0	1025.0	0	0.000	0.0
20091119 17:50	8.7	8.7	8.7	81	5.6	3	6	158	0.0	1025.0	0	0.000	0.0
20091119 17:55	8.6	8.6	8.6	80	5.4	2	6	158	0.0	1025.0	0	0.000	0.0
20091119 18:00	8.5	8.5	8.5	80	5.2	0	3	158	0.0	1025.2	0	0.025	0.0
20091119 18:05	8.3	8.3	8.3	81	5.3	2	5	158	0.0	1025.3	0	0.000	0.0
20091119 18:10	8.2	8.2	8.2	81	5.1	2	5	158	0.0	1025.3	0	0.000	0.0
20091119 18:15	8.0	8.0	8.0	81	4.9	5	11	158	0.0	1025.2	0	0.000	0.0
20091119 18:20	7.9	7.9	7.9	80	4.7	5	10	180	0.0	1025.3	0	0.000	0.0
20091119 18:25	8.1	8.1	8.1	80	4.8	5	8	180	0.0	1025.4	0	0.000	0.0
20091119 18:30	8.2	7.3	8.2	78	4.6	6	11	158	0.2	1025.3	0	0.000	0.0
20091119 18:35	8.4	7.6	8.4	77	4.6	6	10	158	0.0	1025.4	0	0.000	0.0
20091119 18:40	8.5	7.6	8.5	77	4.7	6	11	158	0.0	1025.4	0	0.000	0.0
20091119 18:45	8.6	7.7	8.6	76	4.6	6	16	158	0.0	1025.4	0	0.000	0.0
20091119 18:50	8.5	8.5	8.5	76	4.5	5	10	158	0.0	1025.3	0	0.000	0.0
20091119 18:55	8.4	8.4	8.4	77	4.6	3	6	158	0.0	1025.3	0	0.000	0.0
20091119 19:00	8.2	8.2	8.2	77	4.4	5	6	158	0.0	1025.3	0	0.025	0.0
20091119 19:05	8.1	8.1	8.1	78	4.5	5	8	158	0.0	1025.4	0	0.000	0.0
20091119 19:10	8.0	7.1	8.0	78	4.4	6	10	180	0.0	1025.3	0	0.000	0.0
20091119 19:15	7.9	6.6	7.9	78	4.3	8	14	180	0.0	1025.3	0	0.000	0.0
20091119 19:20	7.9	7.0	7.9	78	4.3	6	10	180	0.0	1025.3	0	0.000	0.0
20091119 19:25	7.9	6.9	7.9	78	4.3	6	11	180	0.0	1025.3	0	0.000	0.0
20091119 19:30	7.9	7.0	7.9	77	4.2	6	11	180	0.0	1025.3	0	0.000	0.0
20091119 19:35	8.0	7.1	8.0	77	4.2	6	11	180	0.0	1025.3	0	0.000	0.0
20091119 19:40	7.9	6.6	7.9	77	4.2	8	11	180	0.0	1025.4	0	0.000	0.0
20091119 19:45	7.9	6.6	7.9	76	4.0	8	11	180	0.0	1025.4	0	0.000	0.0
20091119 19:50	7.9	6.5	7.9	76	3.9	8	14	180	0.0	1025.3	0	0.000	0.0
20091119 19:55	7.9	6.6	7.9	76	4.0	8	14	158	0.0	1025.2	0	0.000	0.0
20091119 20:00	8.0	8.0	8.0	77	4.2	5	11	180	0.0	1025.4	0	0.025	0.0
20091119 20:05	8.0	6.7	8.0	76	4.0	8	18	180	0.0	1025.1	0	0.000	0.0
20091119 20:10	8.0	6.7	8.0	77	4.2	8	18	158	0.0	1025.0	0	0.000	0.0
20091119 20:15	7.9	6.6	7.9	77	4.2	8	14	158	0.0	1025.1	0	0.000	0.0
20091119 20:20	7.8	6.4	7.8	77	4.0	8	11	180	0.0	1025.1	0	0.000	0.0
20091119 20:25	7.7	6.7	7.7	78	4.1	6	14	180	0.0	1025.2	0	0.000	0.0
20091119 20:30	7.7	6.7	7.7	78	4.1	6	10	180	0.0	1025.3	0	0.000	0.0
20091119 20:35	7.6	6.6	7.6	78	4.0	6	8	180	0.0	1025.3	0	0.000	0.0
20091119 20:40	7.5	7.5	7.5	78	3.9	5	8	180	0.0	1025.4	0	0.000	0.0
20091119 20:45	7.4	7.4	7.4	78	3.9	5	6	180	0.0	1025.5	0	0.000	0.0
20091119 20:50	7.3	7.3	7.3	79	3.9	5	8	180	0.0	1025.6	0	0.000	0.0
20091119 20:55	7.3	6.2	7.3	79	3.9	6	11	180	0.0	1025.6	0	0.000	0.0
20091119 21:00	7.2	6.2	7.2	79	3.8	6	11	180	0.0	1025.6	0	0.025	0.0
20091119 21:05	7.2	6.1	7.2	80	3.9	6	10	180	0.0	1025.4	0	0.000	0.0
20091119 21:10	7.1	6.0	7.1	80	3.9	6	11	180	0.0	1025.5	0	0.000	0.0
20091119 21:15	7.0	7.0	7.0	80	3.8	5	8	180	0.0	1025.5	0	0.000	0.0
20091119 21:20	6.9	6.9	6.9	80	3.7	3	6	180	0.0	1025.6	0	0.000	0.0
20091119 21:25	6.8	6.8	6.8	81	3.7	2	3	180	0.0	1025.5	0	0.000	0.0
20091119 21:30	6.7	6.7	6.7	81	3.6	3	6	180	0.0	1025.5	0	0.000	0.0
20091119 21:35	6.5	6.5	6.5	81	3.5	2	5	180	0.0	1025.6	0	0.000	0.0
20091119 21:40	6.3	6.3	6.3	82	3.5	3	6	180	0.0	1025.5	0	0.000	0.0
20091119 21:45	6.3	6.3	6.3	83	3.6	3	6	180	0.0	1025.6	0	0.000	0.0
20091119 21:50	6.2	6.2	6.2	83	3.5	3	6	180	0.0	1025.6	0	0.000	0.0
20091119 21:55	6.1	6.1	6.1	83	3.4	3	6	180	0.0	1025.7	0	0.000	0.0
20091119 22:00	5.9	5.9	5.9	83	3.3	0	3	180	0.0	1025.8	0	0.025	0.0
20091119 22:05	5.8	5.8	5.8	84	3.3	2	5	180	0.0	1025.5	0	0.000	0.0
20091119 22:10	5.7	5.7	5.7	84	3.2	2	5	180	0.0	1025.5	0	0.000	0.0
20091119 22:15	5.6	5.6	5.6	84	3.1	3	5	180	0.0	1025.6	0	0.000	0.0
20091119 22:20	5.4	5.4	5.4	85	3.1	2	5	180	0.0	1025.5	0	0.000	0.0
20091119 22:25	5.3	5.3	5.3	85	3.0	0	3	180	0.0	1025.6	0	0.000	0.0
20091119 22:30	5.2	5.2	5.2	85	2.9	0	2	180	0.0	1025.7	0	0.000	0.0
20091119 22:35	5.1	5.1	5.1	86	3.0	0	2	180	0.0	1025.8	0	0.000	0.0
20091119 22:40	5.1	5.1	5.1	86	2.9	0	3	180	0.0	1025.8	0	0.000	0.0
20091119 22:45	4.8	4.8	4.8	85	2.5	0	2	180	0.0	1025.8	0	0.000	0.0
20091119 22:50	4.7	4.7	4.7	86	2.6	0	3	180	0.0	1025.8	0	0.000	0.0
20091119 22:55	4.7	4.7	4.7	87	2.7	2	5	180	0.0	1025.8	0	0.000	0.0
20091119 23:00	4.8	4.8	4.8	88	3.0	3	6	180	0.0	1025.7	0	0.000	0.0
20091119 23:05	4.9	4.9	4.9	87	3.0	3	6	180	0.0	1025.5	0	0.000	0.0
20091119 23:10	5.1	5.1	5.1	87	3.1	3	6	180	0.0	1025.5	0	0.000	0.0
20091119 23:15	5.1	5.1	5.1	87	3.1	3	6	180	0.0	1025.5	0	0.000	0.0
20091119 23:20	5.2	5.2	5.2	86	3.1	3	8	180	0.0	1025.6	0	0.000	0.0
20091119 23:25	5.3	5.3	5.3	86	3.2	3	6	180	0.0	1025.4	0	0.000	0.0
20091119 23:30	5.4	5.4	5.4	85	3.1	5	8	180	0.0	1025.5	0	0.000	0.0
20091119 23:35	5.4	5.4	5.4	85	3.1	3	6	180	0.0	1025.5	0	0.000	0.0
20091119 23:40	5.4	5.4	5.4	85	3.1	2	5	180	0.0	1025.5	0	0.000	0.0
20091119 23:45	5.3	5.3	5.3	85	3.0	2	5	180	0.0	1025.4	0	0.000	0.0
20091119 23:50	5.2	5.2	5.2	85	2.9	3	6	180	0.0	1025.5	0	0.000	0.0
20091119 23:55	5.1	5.1	5.1	85	2.8	3	6	180	0.0	1025.5	0	0.000	0.0



Please note the license to use and transfer of this data:
http://creativecommons.org/licenses/by-nc-sa/3.0/deed.en

Bitte beachten sie die Lizenz zur Verwertung und Weitergabe der Daten:
http://creativecommons.org/licenses/by-nc-sa/3.0/deed.de

zurück zur Übersicht der Archivdaten (Monats und Tagesdaten)

Cookies helfen bei der Bereitstellung von Inhalten. Durch die Nutzung dieser Seiten erklärst du dich damit einverstanden, dass Cookies auf deinem Rechner gespeichert werden. Weitere Information